sensor_id;sensor_type;location;lat;lon;timestamp;pressure;altitude;pressure_sealevel;temperature
80496;BMP180;69819;48.798;11.770;2023-05-10T00:00:15;96874.00;;;18.20
80496;BMP180;69819;48.798;11.770;2023-05-10T00:02:40;96838.00;;;18.20
80496;BMP180;69819;48.798;11.770;2023-05-10T00:05:07;96870.00;;;18.20
80496;BMP180;69819;48.798;11.770;2023-05-10T00:07:33;96857.00;;;18.20
80496;BMP180;69819;48.798;11.770;2023-05-10T00:09:58;96870.00;;;18.20
80496;BMP180;69819;48.798;11.770;2023-05-10T00:12:24;96855.00;;;18.20
80496;BMP180;69819;48.798;11.770;2023-05-10T00:14:50;96873.00;;;18.20
80496;BMP180;69819;48.798;11.770;2023-05-10T00:17:16;96889.00;;;18.20
80496;BMP180;69819;48.798;11.770;2023-05-10T00:19:41;96887.00;;;18.20
80496;BMP180;69819;48.798;11.770;2023-05-10T00:22:07;96870.00;;;18.20
80496;BMP180;69819;48.798;11.770;2023-05-10T00:24:33;96871.00;;;18.20
80496;BMP180;69819;48.798;11.770;2023-05-10T00:26:59;96878.00;;;18.20
80496;BMP180;69819;48.798;11.770;2023-05-10T00:29:26;96873.00;;;18.20
80496;BMP180;69819;48.798;11.770;2023-05-10T00:31:53;96871.00;;;18.20
80496;BMP180;69819;48.798;11.770;2023-05-10T00:34:19;96875.00;;;18.20
80496;BMP180;69819;48.798;11.770;2023-05-10T00:36:44;96876.00;;;18.20
80496;BMP180;69819;48.798;11.770;2023-05-10T00:39:10;96859.00;;;18.20
80496;BMP180;69819;48.798;11.770;2023-05-10T00:41:36;96869.00;;;18.20
80496;BMP180;69819;48.798;11.770;2023-05-10T00:44:02;96872.00;;;18.20
80496;BMP180;69819;48.798;11.770;2023-05-10T00:46:28;96864.00;;;18.20
80496;BMP180;69819;48.798;11.770;2023-05-10T00:48:55;96855.00;;;18.20
80496;BMP180;69819;48.798;11.770;2023-05-10T00:51:21;96846.00;;;18.20
80496;BMP180;69819;48.798;11.770;2023-05-10T00:53:49;96858.00;;;18.10
80496;BMP180;69819;48.798;11.770;2023-05-10T00:56:16;96883.00;;;18.20
80496;BMP180;69819;48.798;11.770;2023-05-10T00:58:42;96876.00;;;18.10
80496;BMP180;69819;48.798;11.770;2023-05-10T01:01:10;96890.00;;;18.10
80496;BMP180;69819;48.798;11.770;2023-05-10T01:03:36;96859.00;;;18.10
80496;BMP180;69819;48.798;11.770;2023-05-10T01:06:02;96884.00;;;18.10
80496;BMP180;69819;48.798;11.770;2023-05-10T01:08:29;96889.00;;;18.10
80496;BMP180;69819;48.798;11.770;2023-05-10T01:10:55;96883.00;;;18.00
80496;BMP180;69819;48.798;11.770;2023-05-10T01:13:37;96859.00;;;18.00
80496;BMP180;69819;48.798;11.770;2023-05-10T01:16:04;96889.00;;;18.00
80496;BMP180;69819;48.798;11.770;2023-05-10T01:18:36;96876.00;;;18.00
80496;BMP180;69819;48.798;11.770;2023-05-10T01:30:37;96886.00;;;17.80
80496;BMP180;69819;48.798;11.770;2023-05-10T01:36:19;96879.00;;;17.80
80496;BMP180;69819;48.798;11.770;2023-05-10T01:39:06;96879.00;;;17.80
80496;BMP180;69819;48.798;11.770;2023-05-10T01:41:54;96891.00;;;17.80
80496;BMP180;69819;48.798;11.770;2023-05-10T01:47:10;96865.00;;;17.80
80496;BMP180;69819;48.798;11.770;2023-05-10T01:49:45;96882.00;;;17.70
80496;BMP180;69819;48.798;11.770;2023-05-10T01:52:17;96879.00;;;17.70
80496;BMP180;69819;48.798;11.770;2023-05-10T01:55:09;96869.00;;;17.70
80496;BMP180;69819;48.798;11.770;2023-05-10T01:57:39;96879.00;;;17.70
80496;BMP180;69819;48.798;11.770;2023-05-10T02:00:07;96858.00;;;17.70
80496;BMP180;69819;48.798;11.770;2023-05-10T02:02:38;96888.00;;;17.70
80496;BMP180;69819;48.798;11.770;2023-05-10T02:05:09;96863.00;;;17.70
80496;BMP180;69819;48.798;11.770;2023-05-10T02:07:39;96875.00;;;17.70
80496;BMP180;69819;48.798;11.770;2023-05-10T02:10:07;96876.00;;;17.70
80496;BMP180;69819;48.798;11.770;2023-05-10T02:12:41;96863.00;;;17.70
80496;BMP180;69819;48.798;11.770;2023-05-10T02:15:09;96885.00;;;17.70
80496;BMP180;69819;48.798;11.770;2023-05-10T02:17:37;96867.00;;;17.70
80496;BMP180;69819;48.798;11.770;2023-05-10T02:20:06;96879.00;;;17.70
80496;BMP180;69819;48.798;11.770;2023-05-10T02:22:36;96860.00;;;17.70
80496;BMP180;69819;48.798;11.770;2023-05-10T02:25:04;96875.00;;;17.70
80496;BMP180;69819;48.798;11.770;2023-05-10T02:27:30;96869.00;;;17.70
80496;BMP180;69819;48.798;11.770;2023-05-10T02:29:58;96871.00;;;17.70
80496;BMP180;69819;48.798;11.770;2023-05-10T02:32:27;96862.00;;;17.70
80496;BMP180;69819;48.798;11.770;2023-05-10T02:34:55;96852.00;;;17.70
80496;BMP180;69819;48.798;11.770;2023-05-10T02:37:22;96874.00;;;17.70
80496;BMP180;69819;48.798;11.770;2023-05-10T02:39:50;96875.00;;;17.70
80496;BMP180;69819;48.798;11.770;2023-05-10T02:42:26;96873.00;;;17.70
80496;BMP180;69819;48.798;11.770;2023-05-10T02:45:07;96848.00;;;17.70
80496;BMP180;69819;48.798;11.770;2023-05-10T02:47:33;96864.00;;;17.70
80496;BMP180;69819;48.798;11.770;2023-05-10T02:49:59;96870.00;;;17.70
80496;BMP180;69819;48.798;11.770;2023-05-10T02:52:39;96848.00;;;17.60
80496;BMP180;69819;48.798;11.770;2023-05-10T02:55:09;96871.00;;;17.70
80496;BMP180;69819;48.798;11.770;2023-05-10T02:57:41;96861.00;;;17.60
80496;BMP180;69819;48.798;11.770;2023-05-10T03:00:09;96866.00;;;17.60
80496;BMP180;69819;48.798;11.770;2023-05-10T03:02:35;96863.00;;;17.70
80496;BMP180;69819;48.798;11.770;2023-05-10T03:05:01;96873.00;;;17.60
80496;BMP180;69819;48.798;11.770;2023-05-10T03:07:28;96874.00;;;17.60
80496;BMP180;69819;48.798;11.770;2023-05-10T03:09:54;96873.00;;;17.60
80496;BMP180;69819;48.798;11.770;2023-05-10T03:20:42;96878.00;;;17.60
80496;BMP180;69819;48.798;11.770;2023-05-10T03:23:21;96875.00;;;17.50
80496;BMP180;69819;48.798;11.770;2023-05-10T03:25:49;96880.00;;;17.60
80496;BMP180;69819;48.798;11.770;2023-05-10T03:28:17;96871.00;;;17.60
80496;BMP180;69819;48.798;11.770;2023-05-10T03:30:44;96880.00;;;17.60
80496;BMP180;69819;48.798;11.770;2023-05-10T03:33:10;96878.00;;;17.60
80496;BMP180;69819;48.798;11.770;2023-05-10T03:35:36;96881.00;;;17.60
80496;BMP180;69819;48.798;11.770;2023-05-10T03:38:02;96844.00;;;17.60
80496;BMP180;69819;48.798;11.770;2023-05-10T03:40:28;96875.00;;;17.50
80496;BMP180;69819;48.798;11.770;2023-05-10T03:43:00;96878.00;;;17.50
80496;BMP180;69819;48.798;11.770;2023-05-10T03:45:26;96890.00;;;17.50
80496;BMP180;69819;48.798;11.770;2023-05-10T03:47:52;96888.00;;;17.60
80496;BMP180;69819;48.798;11.770;2023-05-10T03:50:20;96883.00;;;17.60
80496;BMP180;69819;48.798;11.770;2023-05-10T03:52:45;96879.00;;;17.60
80496;BMP180;69819;48.798;11.770;2023-05-10T03:55:12;96878.00;;;17.60
80496;BMP180;69819;48.798;11.770;2023-05-10T03:57:38;96882.00;;;17.60
80496;BMP180;69819;48.798;11.770;2023-05-10T04:00:04;96881.00;;;17.70
80496;BMP180;69819;48.798;11.770;2023-05-10T04:02:30;96889.00;;;17.70
80496;BMP180;69819;48.798;11.770;2023-05-10T04:04:56;96891.00;;;17.70
80496;BMP180;69819;48.798;11.770;2023-05-10T04:07:22;96866.00;;;17.70
80496;BMP180;69819;48.798;11.770;2023-05-10T04:09:48;96887.00;;;17.80
80496;BMP180;69819;48.798;11.770;2023-05-10T04:12:13;96877.00;;;17.80
80496;BMP180;69819;48.798;11.770;2023-05-10T04:14:39;96877.00;;;17.80
80496;BMP180;69819;48.798;11.770;2023-05-10T04:17:05;96890.00;;;17.70
80496;BMP180;69819;48.798;11.770;2023-05-10T04:19:31;96895.00;;;17.80
80496;BMP180;69819;48.798;11.770;2023-05-10T04:21:58;96898.00;;;17.80
80496;BMP180;69819;48.798;11.770;2023-05-10T04:24:24;96895.00;;;17.80
80496;BMP180;69819;48.798;11.770;2023-05-10T04:26:51;96893.00;;;17.80
80496;BMP180;69819;48.798;11.770;2023-05-10T04:29:17;96887.00;;;17.80
80496;BMP180;69819;48.798;11.770;2023-05-10T04:31:42;96902.00;;;17.80
80496;BMP180;69819;48.798;11.770;2023-05-10T04:34:08;96888.00;;;17.80
80496;BMP180;69819;48.798;11.770;2023-05-10T04:36:34;96913.00;;;17.80
80496;BMP180;69819;48.798;11.770;2023-05-10T04:39:02;96913.00;;;17.80
80496;BMP180;69819;48.798;11.770;2023-05-10T04:41:31;96923.00;;;17.80
80496;BMP180;69819;48.798;11.770;2023-05-10T04:43:56;96906.00;;;17.80
80496;BMP180;69819;48.798;11.770;2023-05-10T04:46:22;96888.00;;;17.80
80496;BMP180;69819;48.798;11.770;2023-05-10T04:48:48;96912.00;;;17.80
80496;BMP180;69819;48.798;11.770;2023-05-10T04:51:14;96914.00;;;17.80
80496;BMP180;69819;48.798;11.770;2023-05-10T04:53:40;96910.00;;;17.80
80496;BMP180;69819;48.798;11.770;2023-05-10T04:56:06;96889.00;;;17.80
80496;BMP180;69819;48.798;11.770;2023-05-10T04:58:32;96893.00;;;17.80
80496;BMP180;69819;48.798;11.770;2023-05-10T05:01:08;96929.00;;;17.80
80496;BMP180;69819;48.798;11.770;2023-05-10T05:03:34;96926.00;;;17.80
80496;BMP180;69819;48.798;11.770;2023-05-10T05:06:01;96950.00;;;17.80
80496;BMP180;69819;48.798;11.770;2023-05-10T05:08:26;96938.00;;;17.80
80496;BMP180;69819;48.798;11.770;2023-05-10T05:10:52;96932.00;;;17.80
80496;BMP180;69819;48.798;11.770;2023-05-10T05:13:18;96938.00;;;17.80
80496;BMP180;69819;48.798;11.770;2023-05-10T05:15:44;96908.00;;;17.80
80496;BMP180;69819;48.798;11.770;2023-05-10T05:18:10;96929.00;;;17.80
80496;BMP180;69819;48.798;11.770;2023-05-10T05:20:36;96915.00;;;17.80
80496;BMP180;69819;48.798;11.770;2023-05-10T05:23:02;96963.00;;;17.80
80496;BMP180;69819;48.798;11.770;2023-05-10T05:25:28;96953.00;;;17.80
80496;BMP180;69819;48.798;11.770;2023-05-10T05:27:53;96941.00;;;17.90
80496;BMP180;69819;48.798;11.770;2023-05-10T05:30:19;96944.00;;;17.90
80496;BMP180;69819;48.798;11.770;2023-05-10T05:32:45;96957.00;;;17.90
80496;BMP180;69819;48.798;11.770;2023-05-10T05:35:12;96958.00;;;17.90
80496;BMP180;69819;48.798;11.770;2023-05-10T05:37:38;96967.00;;;17.90
80496;BMP180;69819;48.798;11.770;2023-05-10T05:40:05;96956.00;;;18.00
80496;BMP180;69819;48.798;11.770;2023-05-10T05:42:32;96971.00;;;18.00
80496;BMP180;69819;48.798;11.770;2023-05-10T05:44:58;96980.00;;;18.00
80496;BMP180;69819;48.798;11.770;2023-05-10T05:47:23;96955.00;;;18.00
80496;BMP180;69819;48.798;11.770;2023-05-10T05:49:49;96965.00;;;18.10
80496;BMP180;69819;48.798;11.770;2023-05-10T05:52:15;96975.00;;;18.10
80496;BMP180;69819;48.798;11.770;2023-05-10T05:54:40;96959.00;;;18.10
80496;BMP180;69819;48.798;11.770;2023-05-10T05:57:06;96945.00;;;18.20
80496;BMP180;69819;48.798;11.770;2023-05-10T05:59:32;96982.00;;;18.20
80496;BMP180;69819;48.798;11.770;2023-05-10T06:01:58;96978.00;;;18.20
80496;BMP180;69819;48.798;11.770;2023-05-10T06:04:24;96966.00;;;18.20
80496;BMP180;69819;48.798;11.770;2023-05-10T06:06:50;96983.00;;;18.20
80496;BMP180;69819;48.798;11.770;2023-05-10T06:09:15;97004.00;;;18.20
80496;BMP180;69819;48.798;11.770;2023-05-10T06:11:41;97003.00;;;18.20
80496;BMP180;69819;48.798;11.770;2023-05-10T06:14:07;97001.00;;;18.20
80496;BMP180;69819;48.798;11.770;2023-05-10T06:16:36;97007.00;;;18.10
80496;BMP180;69819;48.798;11.770;2023-05-10T06:19:02;97011.00;;;18.10
80496;BMP180;69819;48.798;11.770;2023-05-10T06:21:28;97004.00;;;18.10
80496;BMP180;69819;48.798;11.770;2023-05-10T06:23:54;97003.00;;;18.10
80496;BMP180;69819;48.798;11.770;2023-05-10T06:26:20;97017.00;;;18.10
80496;BMP180;69819;48.798;11.770;2023-05-10T06:28:46;97017.00;;;18.10
80496;BMP180;69819;48.798;11.770;2023-05-10T06:31:12;97028.00;;;18.10
80496;BMP180;69819;48.798;11.770;2023-05-10T06:33:37;97028.00;;;18.10
80496;BMP180;69819;48.798;11.770;2023-05-10T06:36:03;97028.00;;;18.10
80496;BMP180;69819;48.798;11.770;2023-05-10T06:38:29;97011.00;;;18.10
80496;BMP180;69819;48.798;11.770;2023-05-10T06:40:55;97037.00;;;18.10
80496;BMP180;69819;48.798;11.770;2023-05-10T06:43:21;97006.00;;;18.10
80496;BMP180;69819;48.798;11.770;2023-05-10T06:45:48;97046.00;;;18.20
80496;BMP180;69819;48.798;11.770;2023-05-10T06:48:13;97048.00;;;18.30
80496;BMP180;69819;48.798;11.770;2023-05-10T06:50:39;97039.00;;;18.30
80496;BMP180;69819;48.798;11.770;2023-05-10T06:53:05;97047.00;;;18.40
80496;BMP180;69819;48.798;11.770;2023-05-10T06:55:31;97041.00;;;18.50
80496;BMP180;69819;48.798;11.770;2023-05-10T06:57:56;97045.00;;;18.50
80496;BMP180;69819;48.798;11.770;2023-05-10T07:00:22;97057.00;;;18.50
80496;BMP180;69819;48.798;11.770;2023-05-10T07:02:48;97058.00;;;18.60
80496;BMP180;69819;48.798;11.770;2023-05-10T07:05:14;97065.00;;;18.60
80496;BMP180;69819;48.798;11.770;2023-05-10T07:07:40;97057.00;;;18.60
80496;BMP180;69819;48.798;11.770;2023-05-10T07:10:07;97062.00;;;18.60
80496;BMP180;69819;48.798;11.770;2023-05-10T07:12:33;97053.00;;;18.60
80496;BMP180;69819;48.798;11.770;2023-05-10T07:14:59;97071.00;;;18.60
80496;BMP180;69819;48.798;11.770;2023-05-10T07:17:24;97048.00;;;18.70
80496;BMP180;69819;48.798;11.770;2023-05-10T07:19:50;97050.00;;;18.70
80496;BMP180;69819;48.798;11.770;2023-05-10T07:22:17;97045.00;;;18.80
80496;BMP180;69819;48.798;11.770;2023-05-10T07:24:42;97070.00;;;19.00
80496;BMP180;69819;48.798;11.770;2023-05-10T07:27:08;97078.00;;;19.20
80496;BMP180;69819;48.798;11.770;2023-05-10T07:29:35;97063.00;;;19.40
80496;BMP180;69819;48.798;11.770;2023-05-10T07:32:01;97088.00;;;19.80
80496;BMP180;69819;48.798;11.770;2023-05-10T07:34:27;97084.00;;;20.10
80496;BMP180;69819;48.798;11.770;2023-05-10T07:36:57;97092.00;;;20.50
80496;BMP180;69819;48.798;11.770;2023-05-10T07:39:23;97083.00;;;21.00
80496;BMP180;69819;48.798;11.770;2023-05-10T07:41:49;97089.00;;;21.40
80496;BMP180;69819;48.798;11.770;2023-05-10T07:44:15;97094.00;;;21.80
80496;BMP180;69819;48.798;11.770;2023-05-10T07:46:43;97090.00;;;22.20
80496;BMP180;69819;48.798;11.770;2023-05-10T07:49:09;97093.00;;;22.50
80496;BMP180;69819;48.798;11.770;2023-05-10T07:51:35;97076.00;;;22.80
80496;BMP180;69819;48.798;11.770;2023-05-10T07:54:01;97092.00;;;23.10
80496;BMP180;69819;48.798;11.770;2023-05-10T07:56:30;97085.00;;;23.40
80496;BMP180;69819;48.798;11.770;2023-05-10T07:59:00;97110.00;;;23.70
80496;BMP180;69819;48.798;11.770;2023-05-10T08:01:30;97094.00;;;24.00
80496;BMP180;69819;48.798;11.770;2023-05-10T08:03:57;97110.00;;;24.30
80496;BMP180;69819;48.798;11.770;2023-05-10T08:06:22;97112.00;;;24.70
80496;BMP180;69819;48.798;11.770;2023-05-10T08:08:49;97105.00;;;25.00
80496;BMP180;69819;48.798;11.770;2023-05-10T08:11:17;97114.00;;;25.40
80496;BMP180;69819;48.798;11.770;2023-05-10T08:13:44;97111.00;;;25.80
80496;BMP180;69819;48.798;11.770;2023-05-10T08:16:10;97108.00;;;26.20
80496;BMP180;69819;48.798;11.770;2023-05-10T08:18:37;97109.00;;;26.60
80496;BMP180;69819;48.798;11.770;2023-05-10T08:21:03;97110.00;;;26.90
80496;BMP180;69819;48.798;11.770;2023-05-10T08:23:29;97105.00;;;27.00
80496;BMP180;69819;48.798;11.770;2023-05-10T08:25:55;97112.00;;;27.00
80496;BMP180;69819;48.798;11.770;2023-05-10T08:28:21;97106.00;;;27.00
80496;BMP180;69819;48.798;11.770;2023-05-10T08:30:47;97114.00;;;26.90
80496;BMP180;69819;48.798;11.770;2023-05-10T08:33:12;97120.00;;;26.80
80496;BMP180;69819;48.798;11.770;2023-05-10T08:35:38;97131.00;;;26.60
80496;BMP180;69819;48.798;11.770;2023-05-10T08:38:04;97114.00;;;26.30
80496;BMP180;69819;48.798;11.770;2023-05-10T08:40:30;97121.00;;;26.10
80496;BMP180;69819;48.798;11.770;2023-05-10T08:43:05;97117.00;;;25.90
80496;BMP180;69819;48.798;11.770;2023-05-10T08:45:37;97121.00;;;25.70
80496;BMP180;69819;48.798;11.770;2023-05-10T08:48:06;97131.00;;;25.60
80496;BMP180;69819;48.798;11.770;2023-05-10T08:50:40;97130.00;;;25.50
80496;BMP180;69819;48.798;11.770;2023-05-10T08:53:12;97122.00;;;25.40
80496;BMP180;69819;48.798;11.770;2023-05-10T08:55:39;97125.00;;;25.40
80496;BMP180;69819;48.798;11.770;2023-05-10T08:58:06;97122.00;;;25.30
80496;BMP180;69819;48.798;11.770;2023-05-10T09:00:33;97141.00;;;25.20
80496;BMP180;69819;48.798;11.770;2023-05-10T09:03:00;97138.00;;;25.10
80496;BMP180;69819;48.798;11.770;2023-05-10T09:05:27;97125.00;;;25.00
80496;BMP180;69819;48.798;11.770;2023-05-10T09:07:53;97122.00;;;25.00
80496;BMP180;69819;48.798;11.770;2023-05-10T09:10:20;97128.00;;;25.00
80496;BMP180;69819;48.798;11.770;2023-05-10T09:12:47;97144.00;;;25.00
80496;BMP180;69819;48.798;11.770;2023-05-10T09:15:15;97142.00;;;24.90
80496;BMP180;69819;48.798;11.770;2023-05-10T09:17:43;97138.00;;;24.90
80496;BMP180;69819;48.798;11.770;2023-05-10T09:20:10;97137.00;;;25.00
80496;BMP180;69819;48.798;11.770;2023-05-10T09:22:36;97130.00;;;25.10
80496;BMP180;69819;48.798;11.770;2023-05-10T09:25:10;97150.00;;;25.30
80496;BMP180;69819;48.798;11.770;2023-05-10T09:27:38;97157.00;;;25.50
80496;BMP180;69819;48.798;11.770;2023-05-10T09:30:05;97154.00;;;25.70
80496;BMP180;69819;48.798;11.770;2023-05-10T09:32:47;97151.00;;;25.60
80496;BMP180;69819;48.798;11.770;2023-05-10T09:35:15;97164.00;;;25.50
80496;BMP180;69819;48.798;11.770;2023-05-10T09:37:44;97163.00;;;25.30
80496;BMP180;69819;48.798;11.770;2023-05-10T09:40:22;97146.00;;;25.10
80496;BMP180;69819;48.798;11.770;2023-05-10T09:43:08;97146.00;;;24.90
80496;BMP180;69819;48.798;11.770;2023-05-10T09:45:35;97158.00;;;24.70
80496;BMP180;69819;48.798;11.770;2023-05-10T09:48:02;97160.00;;;24.60
80496;BMP180;69819;48.798;11.770;2023-05-10T09:50:30;97146.00;;;24.60
80496;BMP180;69819;48.798;11.770;2023-05-10T09:53:02;97161.00;;;24.60
80496;BMP180;69819;48.798;11.770;2023-05-10T09:55:46;97165.00;;;24.80
80496;BMP180;69819;48.798;11.770;2023-05-10T09:58:15;97144.00;;;25.10
80496;BMP180;69819;48.798;11.770;2023-05-10T10:00:46;97156.00;;;25.30
80496;BMP180;69819;48.798;11.770;2023-05-10T10:03:19;97141.00;;;25.60
80496;BMP180;69819;48.798;11.770;2023-05-10T10:05:47;97158.00;;;25.90
80496;BMP180;69819;48.798;11.770;2023-05-10T10:08:15;97162.00;;;26.20
80496;BMP180;69819;48.798;11.770;2023-05-10T10:10:41;97158.00;;;26.40
80496;BMP180;69819;48.798;11.770;2023-05-10T10:13:08;97146.00;;;26.70
80496;BMP180;69819;48.798;11.770;2023-05-10T10:15:35;97127.00;;;27.10
80496;BMP180;69819;48.798;11.770;2023-05-10T10:18:01;97148.00;;;27.50
80496;BMP180;69819;48.798;11.770;2023-05-10T10:20:29;97144.00;;;27.90
80496;BMP180;69819;48.798;11.770;2023-05-10T10:22:54;97132.00;;;28.40
80496;BMP180;69819;48.798;11.770;2023-05-10T10:25:21;97134.00;;;28.80
80496;BMP180;69819;48.798;11.770;2023-05-10T10:28:08;97125.00;;;29.20
80496;BMP180;69819;48.798;11.770;2023-05-10T10:30:50;97127.00;;;29.50
80496;BMP180;69819;48.798;11.770;2023-05-10T10:36:18;97131.00;;;29.90
80496;BMP180;69819;48.798;11.770;2023-05-10T10:41:35;97128.00;;;29.60
80496;BMP180;69819;48.798;11.770;2023-05-10T10:47:28;97123.00;;;29.20
80496;BMP180;69819;48.798;11.770;2023-05-10T10:50:08;97123.00;;;29.10
80496;BMP180;69819;48.798;11.770;2023-05-10T10:52:37;97131.00;;;29.00
80496;BMP180;69819;48.798;11.770;2023-05-10T10:55:06;97126.00;;;28.90
80496;BMP180;69819;48.798;11.770;2023-05-10T10:57:53;97130.00;;;28.70
80496;BMP180;69819;48.798;11.770;2023-05-10T11:03:09;97123.00;;;28.30
80496;BMP180;69819;48.798;11.770;2023-05-10T11:05:49;97120.00;;;28.10
80496;BMP180;69819;48.798;11.770;2023-05-10T11:08:32;97117.00;;;27.80
80496;BMP180;69819;48.798;11.770;2023-05-10T11:13:43;97124.00;;;27.30
80496;BMP180;69819;48.798;11.770;2023-05-10T11:16:19;97133.00;;;27.10
80496;BMP180;69819;48.798;11.770;2023-05-10T11:19:01;97115.00;;;26.90
80496;BMP180;69819;48.798;11.770;2023-05-10T11:21:32;97093.00;;;26.80
80496;BMP180;69819;48.798;11.770;2023-05-10T11:24:00;97110.00;;;26.70
80496;BMP180;69819;48.798;11.770;2023-05-10T11:26:34;97114.00;;;26.60
80496;BMP180;69819;48.798;11.770;2023-05-10T11:29:00;97119.00;;;26.50
80496;BMP180;69819;48.798;11.770;2023-05-10T11:31:28;97103.00;;;26.50
80496;BMP180;69819;48.798;11.770;2023-05-10T11:33:56;97112.00;;;26.60
80496;BMP180;69819;48.798;11.770;2023-05-10T11:36:27;97112.00;;;26.70
80496;BMP180;69819;48.798;11.770;2023-05-10T11:38:55;97100.00;;;26.70
80496;BMP180;69819;48.798;11.770;2023-05-10T11:41:23;97096.00;;;26.80
80496;BMP180;69819;48.798;11.770;2023-05-10T11:43:51;97105.00;;;26.90
80496;BMP180;69819;48.798;11.770;2023-05-10T11:46:21;97100.00;;;26.90
80496;BMP180;69819;48.798;11.770;2023-05-10T11:48:50;97099.00;;;27.00
80496;BMP180;69819;48.798;11.770;2023-05-10T11:51:24;97098.00;;;27.00
80496;BMP180;69819;48.798;11.770;2023-05-10T11:53:53;97105.00;;;27.10
80496;BMP180;69819;48.798;11.770;2023-05-10T11:56:19;97106.00;;;27.20
80496;BMP180;69819;48.798;11.770;2023-05-10T11:58:56;97107.00;;;27.30
80496;BMP180;69819;48.798;11.770;2023-05-10T12:01:27;97112.00;;;27.50
80496;BMP180;69819;48.798;11.770;2023-05-10T12:03:56;97108.00;;;27.60
80496;BMP180;69819;48.798;11.770;2023-05-10T12:06:32;97113.00;;;27.70
80496;BMP180;69819;48.798;11.770;2023-05-10T12:08:58;97101.00;;;27.90
80496;BMP180;69819;48.798;11.770;2023-05-10T12:11:27;97106.00;;;27.90
80496;BMP180;69819;48.798;11.770;2023-05-10T12:13:54;97118.00;;;27.90
80496;BMP180;69819;48.798;11.770;2023-05-10T12:16:27;97126.00;;;27.80
80496;BMP180;69819;48.798;11.770;2023-05-10T12:18:58;97119.00;;;27.70
80496;BMP180;69819;48.798;11.770;2023-05-10T12:21:25;97103.00;;;27.50
80496;BMP180;69819;48.798;11.770;2023-05-10T12:23:54;97126.00;;;27.30
80496;BMP180;69819;48.798;11.770;2023-05-10T12:26:25;97121.00;;;27.10
80496;BMP180;69819;48.798;11.770;2023-05-10T12:28:53;97124.00;;;26.90
80496;BMP180;69819;48.798;11.770;2023-05-10T12:31:19;97130.00;;;26.60
80496;BMP180;69819;48.798;11.770;2023-05-10T12:33:45;97116.00;;;26.20
80496;BMP180;69819;48.798;11.770;2023-05-10T12:36:14;97134.00;;;25.80
80496;BMP180;69819;48.798;11.770;2023-05-10T12:38:45;97121.00;;;25.40
80496;BMP180;69819;48.798;11.770;2023-05-10T12:41:16;97137.00;;;25.00
80496;BMP180;69819;48.798;11.770;2023-05-10T12:43:43;97137.00;;;24.80
80496;BMP180;69819;48.798;11.770;2023-05-10T12:46:16;97139.00;;;24.50
80496;BMP180;69819;48.798;11.770;2023-05-10T12:48:44;97133.00;;;24.30
80496;BMP180;69819;48.798;11.770;2023-05-10T12:51:10;97144.00;;;24.20
80496;BMP180;69819;48.798;11.770;2023-05-10T12:53:39;97139.00;;;24.10
80496;BMP180;69819;48.798;11.770;2023-05-10T12:56:05;97134.00;;;24.00
80496;BMP180;69819;48.798;11.770;2023-05-10T12:58:31;97144.00;;;24.10
80496;BMP180;69819;48.798;11.770;2023-05-10T13:00:59;97131.00;;;24.10
80496;BMP180;69819;48.798;11.770;2023-05-10T13:03:25;97141.00;;;24.20
80496;BMP180;69819;48.798;11.770;2023-05-10T13:05:51;97142.00;;;24.40
80496;BMP180;69819;48.798;11.770;2023-05-10T13:08:17;97139.00;;;24.50
80496;BMP180;69819;48.798;11.770;2023-05-10T13:10:43;97148.00;;;24.60
80496;BMP180;69819;48.798;11.770;2023-05-10T13:13:09;97141.00;;;24.80
80496;BMP180;69819;48.798;11.770;2023-05-10T13:15:35;97128.00;;;24.90
80496;BMP180;69819;48.798;11.770;2023-05-10T13:18:01;97143.00;;;25.10
80496;BMP180;69819;48.798;11.770;2023-05-10T13:20:27;97145.00;;;25.20
80496;BMP180;69819;48.798;11.770;2023-05-10T13:22:53;97140.00;;;25.30
80496;BMP180;69819;48.798;11.770;2023-05-10T13:25:19;97146.00;;;25.40
80496;BMP180;69819;48.798;11.770;2023-05-10T13:27:45;97144.00;;;25.50
80496;BMP180;69819;48.798;11.770;2023-05-10T13:30:11;97133.00;;;25.50
80496;BMP180;69819;48.798;11.770;2023-05-10T13:32:37;97143.00;;;25.60
80496;BMP180;69819;48.798;11.770;2023-05-10T13:35:04;97141.00;;;25.70
80496;BMP180;69819;48.798;11.770;2023-05-10T13:37:31;97158.00;;;25.80
80496;BMP180;69819;48.798;11.770;2023-05-10T13:39:57;97148.00;;;25.80
80496;BMP180;69819;48.798;11.770;2023-05-10T13:42:23;97136.00;;;25.80
80496;BMP180;69819;48.798;11.770;2023-05-10T13:44:50;97153.00;;;25.90
80496;BMP180;69819;48.798;11.770;2023-05-10T13:47:16;97146.00;;;25.90
80496;BMP180;69819;48.798;11.770;2023-05-10T13:49:42;97140.00;;;25.90
80496;BMP180;69819;48.798;11.770;2023-05-10T13:52:08;97158.00;;;25.90
80496;BMP180;69819;48.798;11.770;2023-05-10T13:54:36;97145.00;;;25.90
80496;BMP180;69819;48.798;11.770;2023-05-10T13:57:02;97141.00;;;26.00
80496;BMP180;69819;48.798;11.770;2023-05-10T13:59:28;97133.00;;;26.00
80496;BMP180;69819;48.798;11.770;2023-05-10T14:01:54;97125.00;;;26.00
80496;BMP180;69819;48.798;11.770;2023-05-10T14:04:20;97147.00;;;26.00
80496;BMP180;69819;48.798;11.770;2023-05-10T14:06:46;97152.00;;;26.00
80496;BMP180;69819;48.798;11.770;2023-05-10T14:09:12;97145.00;;;26.00
80496;BMP180;69819;48.798;11.770;2023-05-10T14:11:38;97157.00;;;26.00
80496;BMP180;69819;48.798;11.770;2023-05-10T14:14:07;97157.00;;;26.00
80496;BMP180;69819;48.798;11.770;2023-05-10T14:16:33;97160.00;;;25.90
80496;BMP180;69819;48.798;11.770;2023-05-10T14:18:58;97162.00;;;25.90
80496;BMP180;69819;48.798;11.770;2023-05-10T14:21:24;97162.00;;;25.80
80496;BMP180;69819;48.798;11.770;2023-05-10T14:23:50;97154.00;;;25.70
80496;BMP180;69819;48.798;11.770;2023-05-10T14:26:16;97152.00;;;25.50
80496;BMP180;69819;48.798;11.770;2023-05-10T14:28:42;97162.00;;;25.40
80496;BMP180;69819;48.798;11.770;2023-05-10T14:31:07;97156.00;;;25.20
80496;BMP180;69819;48.798;11.770;2023-05-10T14:33:33;97135.00;;;25.00
80496;BMP180;69819;48.798;11.770;2023-05-10T14:35:59;97165.00;;;24.90
80496;BMP180;69819;48.798;11.770;2023-05-10T14:38:25;97155.00;;;24.70